| time (UTC) | temp F | wind direction | speed knots | gust knots | rain 1hr in | rain 24hr in | rain mn in | humidity % | barometer mb |
| 20260507081528 | 103 | 0.0 | 0.0 | 0.00 | 0.00 | 0.00 | 33 | 966.3 | |
| 20260507081028 | 102 | 0.0 | 0.0 | 0.00 | 0.00 | 0.00 | 33 | 966.3 | |
| 20260507080528 | 101 | 0.0 | 0.0 | 0.00 | 0.00 | 0.00 | 32 | 966.2 | |
| 20260507080029 | 100 | 0.0 | 0.0 | 0.00 | 0.00 | 0.00 | 32 | 966.2 | |
| 20260507075528 | 99 | 0.0 | 0.0 | 0.00 | 0.00 | 0.00 | 36 | 966.2 | |
| 20260507075028 | 96 | 0.0 | 0.0 | 0.00 | 0.00 | 0.00 | 35 | 966.1 | |
| 20260507074528 | 93 | 0.0 | 0.0 | 0.00 | 0.00 | 0.00 | 37 | 966.1 | |
| 20260507074028 | 87 | 0.0 | 0.0 | 0.00 | 0.00 | 0.00 | 40 | 966.0 | |
| 20260507061206 | 82 | 0.0 | 0.0 | 0.00 | 0.00 | 0.00 | 38 | 965.0 | |
| 20260507060706 | 82 | 0.0 | 0.0 | 0.00 | 0.00 | 0.00 | 38 | 965.1 | |
| 20260507060206 | 82 | 0.0 | 0.0 | 0.00 | 0.00 | 0.00 | 38 | 965.1 | |
| 20260507055706 | 82 | 0.0 | 0.0 | 0.00 | 0.00 | 0.00 | 38 | 965.0 | |
| 20260507055206 | 82 | 0.0 | 0.0 | 0.00 | 0.00 | 0.00 | 38 | 964.9 | |
| 20260507054706 | 82 | 0.0 | 0.0 | 0.00 | 0.00 | 0.00 | 38 | 964.8 | |
| 20260507054206 | 82 | 0.0 | 0.0 | 0.00 | 0.00 | 0.00 | 38 | 964.8 | |
| 20260507053706 | 82 | 0.0 | 0.0 | 0.00 | 0.00 | 0.00 | 38 | 964.8 | |
| 20260507053205 | 82 | 0.0 | 0.0 | 0.00 | 0.00 | 0.00 | 38 | 964.7 | |
| 20260507052705 | 82 | 0.0 | 0.0 | 0.00 | 0.00 | 0.00 | 38 | 964.6 | |
| 20260507052205 | 82 | 0.0 | 0.0 | 0.00 | 0.00 | 0.00 | 38 | 964.6 | |
| 20260507051705 | 82 | 0.0 | 0.0 | 0.00 | 0.00 | 0.00 | 38 | 964.6 | |
| 20260507051205 | 82 | 0.0 | 0.0 | 0.00 | 0.00 | 0.00 | 38 | 964.6 | |
| 20260507050705 | 82 | 0.0 | 0.0 | 0.00 | 0.00 | 0.00 | 38 | 964.5 | |
| 20260507050205 | 82 | 0.0 | 0.0 | 0.00 | 0.00 | 0.00 | 38 | 964.4 | |
| 20260507045705 | 82 | 0.0 | 0.0 | 0.00 | 0.00 | 0.00 | 38 | 964.3 | |
| 20260507045205 | 82 | 0.0 | 0.0 | 0.00 | 0.00 | 0.00 | 38 | 964.3 | |
| 20260507044705 | 82 | 0.0 | 0.0 | 0.00 | 0.00 | 0.00 | 38 | 964.3 | |
| 20260507044205 | 82 | 0.0 | 0.0 | 0.00 | 0.00 | 0.00 | 38 | 964.3 | |
| 20260507043705 | 82 | 0.0 | 0.0 | 0.00 | 0.00 | 0.00 | 38 | 964.2 | |
| 20260507043205 | 82 | 0.0 | 0.0 | 0.00 | 0.00 | 0.00 | 38 | 964.2 | |
| 20260507042706 | 82 | 0.0 | 0.0 | 0.00 | 0.00 | 0.00 | 38 | 964.1 | |
| 20260507042205 | 82 | 0.0 | 0.0 | 0.00 | 0.00 | 0.00 | 38 | 964.1 | |
| 20260507041705 | 82 | 0.0 | 0.0 | 0.00 | 0.00 | 0.00 | 38 | 964.0 | |
| 20260507041205 | 82 | 0.0 | 0.0 | 0.00 | 0.00 | 0.00 | 38 | 963.9 | |
| 20260507040705 | 82 | 0.0 | 0.0 | 0.00 | 0.00 | 0.00 | 38 | 963.9 | |
| 20260507040205 | 82 | 0.0 | 0.0 | 0.00 | 0.00 | 0.00 | 38 | 963.8 | |
| 20260507035705 | 82 | 0.0 | 0.0 | 0.00 | 0.00 | 0.00 | 38 | 963.8 | |
| 20260507035205 | 82 | 0.0 | 0.0 | 0.00 | 0.00 | 0.00 | 38 | 963.8 | |
| 20260507034705 | 83 | 0.0 | 0.0 | 0.00 | 0.00 | 0.00 | 38 | 963.8 | |
| 20260507034206 | 82 | 0.0 | 0.0 | 0.00 | 0.00 | 0.00 | 38 | 963.8 | |
| 20260507033705 | 82 | 0.0 | 0.0 | 0.00 | 0.00 | 0.00 | 38 | 963.6 | |
| 20260507033205 | 82 | 0.0 | 0.0 | 0.00 | 0.00 | 0.00 | 38 | 963.7 | |
| 20260507032205 | 82 | 0.0 | 0.0 | 0.00 | 0.00 | 0.00 | 38 | 963.6 | |
| 20260507031706 | 83 | 0.0 | 0.0 | 0.00 | 0.00 | 0.00 | 38 | 963.6 | |
| 20260507031151 | 83 | 0.0 | 0.0 | 0.00 | 0.00 | 0.00 | 38 | 963.6 | |
| 20260507030652 | 83 | 0.0 | 0.0 | 0.00 | 0.00 | 0.00 | 38 | 963.6 | |
| 20260507030151 | 83 | 0.0 | 0.0 | 0.00 | 0.00 | 0.00 | 38 | 963.5 | |
| 20260507025651 | 83 | 0.0 | 0.0 | 0.00 | 0.00 | 0.00 | 37 | 963.5 | |
| 20260507025137 | 83 | 0.0 | 0.0 | 0.00 | 0.00 | 0.00 | 38 | 963.5 | |
| 20260507024637 | 83 | 0.0 | 0.0 | 0.00 | 0.00 | 0.00 | 38 | 963.4 | |
| 20260507024137 | 83 | 0.0 | 0.0 | 0.00 | 0.00 | 0.00 | 38 | 963.4 | |
| 20260507023637 | 83 | 0.0 | 0.0 | 0.00 | 0.00 | 0.00 | 38 | 963.4 | |
| 20260507023138 | 83 | 0.0 | 0.0 | 0.00 | 0.00 | 0.00 | 38 | 963.4 | |
| 20260507022637 | 83 | 0.0 | 0.0 | 0.00 | 0.00 | 0.00 | 38 | 963.5 | |
| 20260507022137 | 83 | 0.0 | 0.0 | 0.00 | 0.00 | 0.00 | 38 | 963.4 | |
| 20260507021638 | 83 | 0.0 | 0.0 | 0.00 | 0.00 | 0.00 | 38 | 963.3 | |
| 20260507021137 | 83 | 0.0 | 0.0 | 0.00 | 0.00 | 0.00 | 38 | 963.2 | |
| 20260507020637 | 83 | 0.0 | 0.0 | 0.00 | 0.00 | 0.00 | 38 | 963.3 | |
| 20260507020137 | 83 | 0.0 | 0.0 | 0.00 | 0.00 | 0.00 | 38 | 963.3 | |
| 20260507015637 | 83 | 0.0 | 0.0 | 0.00 | 0.00 | 0.00 | 38 | 963.3 | |
| 20260507015137 | 83 | 0.0 | 0.0 | 0.00 | 0.00 | 0.00 | 38 | 963.2 | |
| 20260507014637 | 83 | 0.0 | 0.0 | 0.00 | 0.00 | 0.00 | 38 | 963.2 | |
| 20260507014137 | 83 | 0.0 | 0.0 | 0.00 | 0.00 | 0.00 | 38 | 963.2 | |
| 20260507013637 | 83 | 0.0 | 0.0 | 0.00 | 0.00 | 0.00 | 38 | 963.2 | |
| 20260507013137 | 83 | 0.0 | 0.0 | 0.00 | 0.00 | 0.00 | 38 | 963.1 | |
| 20260507012637 | 83 | 0.0 | 0.0 | 0.00 | 0.00 | 0.00 | 38 | 963.0 | |
| 20260507012137 | 83 | 0.0 | 0.0 | 0.00 | 0.00 | 0.00 | 38 | 963.0 | |
| 20260507011636 | 83 | 0.0 | 0.0 | 0.00 | 0.00 | 0.00 | 38 | 963.0 | |
| 20260507010637 | 83 | 0.0 | 0.0 | 0.00 | 0.00 | 0.00 | 38 | 963.0 | |
| 20260507010137 | 83 | 0.0 | 0.0 | 0.00 | 0.00 | 0.00 | 38 | 963.0 | |
| 20260507005637 | 83 | 0.0 | 0.0 | 0.00 | 0.00 | 0.00 | 38 | 963.0 | |
| 20260507005137 | 83 | 0.0 | 0.0 | 0.00 | 0.00 | 0.00 | 38 | 963.0 | |
| 20260507004636 | 83 | 0.0 | 0.0 | 0.00 | 0.00 | 0.00 | 38 | 963.0 | |
| 20260507004136 | 83 | 0.0 | 0.0 | 0.00 | 0.00 | 0.00 | 38 | 962.9 | |
| 20260507003636 | 83 | 0.0 | 0.0 | 0.00 | 0.00 | 0.00 | 38 | 962.9 | |
| 20260507003136 | 83 | 0.0 | 0.0 | 0.00 | 0.00 | 0.00 | 38 | 962.8 | |
| 20260507002636 | 83 | 0.0 | 0.0 | 0.00 | 0.00 | 0.00 | 38 | 962.8 | |
| 20260507002136 | 83 | 0.0 | 0.0 | 0.00 | 0.00 | 0.00 | 38 | 962.8 | |
| 20260507001636 | 83 | 0.0 | 0.0 | 0.00 | 0.00 | 0.00 | 38 | 962.7 | |
| 20260507001135 | 83 | 0.0 | 0.0 | 0.00 | 0.00 | 0.00 | 38 | 962.7 | |
| 20260507000635 | 83 | 0.0 | 0.0 | 0.00 | 0.00 | 0.00 | 38 | 962.7 | |
| 20260507000135 | 83 | 0.0 | 0.0 | 0.00 | 0.00 | 0.00 | 38 | 962.8 | |
| 20260506235635 | 83 | 0.0 | 0.0 | 0.00 | 0.00 | 0.00 | 38 | 962.8 | |
| 20260506235135 | 83 | 0.0 | 0.0 | 0.00 | 0.00 | 0.00 | 38 | 962.8 | |
| 20260506234635 | 83 | 0.0 | 0.0 | 0.00 | 0.00 | 0.00 | 38 | 962.9 | |
| 20260506234135 | 83 | 0.0 | 0.0 | 0.00 | 0.00 | 0.00 | 38 | 962.8 | |
| 20260506233635 | 83 | 0.0 | 0.0 | 0.00 | 0.00 | 0.00 | 38 | 962.8 | |
| 20260506233135 | 83 | 0.0 | 0.0 | 0.00 | 0.00 | 0.00 | 38 | 962.7 | |
| 20260506232634 | 83 | 0.0 | 0.0 | 0.00 | 0.00 | 0.00 | 38 | 962.7 | |
| 20260506232134 | 83 | 0.0 | 0.0 | 0.00 | 0.00 | 0.00 | 38 | 962.7 | |
| 20260506231634 | 83 | 0.0 | 0.0 | 0.00 | 0.00 | 0.00 | 38 | 962.6 | |
| 20260506231134 | 83 | 0.0 | 0.0 | 0.00 | 0.00 | 0.00 | 38 | 962.6 | |
| 20260506230635 | 83 | 0.0 | 0.0 | 0.00 | 0.00 | 0.00 | 38 | 962.5 | |
| 20260506230134 | 83 | 0.0 | 0.0 | 0.00 | 0.00 | 0.00 | 38 | 962.4 | |
| 20260506225634 | 83 | 0.0 | 0.0 | 0.00 | 0.00 | 0.00 | 38 | 962.4 | |
| 20260506225134 | 83 | 0.0 | 0.0 | 0.00 | 0.00 | 0.00 | 38 | 962.4 | |
| 20260506224634 | 83 | 0.0 | 0.0 | 0.00 | 0.00 | 0.00 | 38 | 962.4 | |
| 20260506224134 | 83 | 0.0 | 0.0 | 0.00 | 0.00 | 0.00 | 38 | 962.3 | |
| 20260506223634 | 83 | 0.0 | 0.0 | 0.00 | 0.00 | 0.00 | 38 | 962.4 | |
| 20260506223134 | 83 | 0.0 | 0.0 | 0.00 | 0.00 | 0.00 | 38 | 962.3 | |
| 20260506222634 | 83 | 0.0 | 0.0 | 0.00 | 0.00 | 0.00 | 38 | 962.4 | |
| 20260506222134 | 84 | 0.0 | 0.0 | 0.00 | 0.00 | 0.00 | 38 | 962.3 | |
| 20260506221634 | 84 | 0.0 | 0.0 | 0.00 | 0.00 | 0.00 | 38 | 962.3 | |
| 20260506221134 | 84 | 0.0 | 0.0 | 0.00 | 0.00 | 0.00 | 38 | 962.1 | |
| 20260506220634 | 84 | 0.0 | 0.0 | 0.00 | 0.00 | 0.00 | 37 | 962.2 | |
| 20260506220133 | 84 | 0.0 | 0.0 | 0.00 | 0.00 | 0.00 | 38 | 962.2 | |
| 20260506215633 | 84 | 0.0 | 0.0 | 0.00 | 0.00 | 0.00 | 37 | 962.1 | |
| 20260506215133 | 84 | 0.0 | 0.0 | 0.00 | 0.00 | 0.00 | 37 | 962.2 | |
| 20260506214634 | 84 | 0.0 | 0.0 | 0.00 | 0.00 | 0.00 | 37 | 962.1 | |
| 20260506214133 | 84 | 0.0 | 0.0 | 0.00 | 0.00 | 0.00 | 38 | 962.1 | |
| 20260506213634 | 84 | 0.0 | 0.0 | 0.00 | 0.00 | 0.00 | 37 | 962.1 | |
| 20260506213134 | 84 | 0.0 | 0.0 | 0.00 | 0.00 | 0.00 | 38 | 962.1 | |
| 20260506212634 | 84 | 0.0 | 0.0 | 0.00 | 0.00 | 0.00 | 38 | 962.1 | |
| 20260506212133 | 84 | 0.0 | 0.0 | 0.00 | 0.00 | 0.00 | 38 | 962.1 | |
| 20260506211633 | 84 | 0.0 | 0.0 | 0.00 | 0.00 | 0.00 | 37 | 962.1 | |
| 20260506211133 | 84 | 0.0 | 0.0 | 0.00 | 0.00 | 0.00 | 38 | 962.1 | |
| 20260506210634 | 84 | 0.0 | 0.0 | 0.00 | 0.00 | 0.00 | 37 | 962.0 | |
| 20260506210133 | 84 | 0.0 | 0.0 | 0.00 | 0.00 | 0.00 | 37 | 962.0 | |
| 20260506205633 | 84 | 0.0 | 0.0 | 0.00 | 0.00 | 0.00 | 37 | 962.0 | |
| 20260506205134 | 84 | 0.0 | 0.0 | 0.00 | 0.00 | 0.00 | 37 | 962.0 | |
| 20260506204633 | 84 | 0.0 | 0.0 | 0.00 | 0.00 | 0.00 | 37 | 962.0 | |
| 20260506204133 | 84 | 0.0 | 0.0 | 0.00 | 0.00 | 0.00 | 37 | 961.9 | |
| 20260506203633 | 84 | 0.0 | 0.0 | 0.00 | 0.00 | 0.00 | 38 | 962.0 | |
| 20260506203133 | 84 | 0.0 | 0.0 | 0.00 | 0.00 | 0.00 | 37 | 961.9 | |
| 20260506202632 | 84 | 0.0 | 0.0 | 0.00 | 0.00 | 0.00 | 37 | 961.9 | |
| 20260506202132 | 84 | 0.0 | 0.0 | 0.00 | 0.00 | 0.00 | 38 | 962.0 | |
| 20260506201632 | 84 | 0.0 | 0.0 | 0.00 | 0.00 | 0.00 | 37 | 961.9 | |
| 20260506201132 | 84 | 0.0 | 0.0 | 0.00 | 0.00 | 0.00 | 37 | 961.8 | |
| 20260506200632 | 84 | 0.0 | 0.0 | 0.00 | 0.00 | 0.00 | 37 | 961.8 | |
| 20260506200132 | 84 | 0.0 | 0.0 | 0.00 | 0.00 | 0.00 | 37 | 961.8 | |
| 20260506195633 | 84 | 0.0 | 0.0 | 0.00 | 0.00 | 0.00 | 37 | 961.8 | |
| 20260506195132 | 84 | 0.0 | 0.0 | 0.00 | 0.00 | 0.00 | 37 | 961.7 | |
| 20260506194632 | 84 | 0.0 | 0.0 | 0.00 | 0.00 | 0.00 | 38 | 961.7 | |
| 20260506194132 | 84 | 0.0 | 0.0 | 0.00 | 0.00 | 0.00 | 37 | 961.7 | |
| 20260506193632 | 84 | 0.0 | 0.0 | 0.00 | 0.00 | 0.00 | 37 | 961.5 | |
| 20260506193132 | 84 | 0.0 | 0.0 | 0.00 | 0.00 | 0.00 | 38 | 961.5 | |
| 20260506192632 | 84 | 0.0 | 0.0 | 0.00 | 0.00 | 0.00 | 37 | 961.5 | |
| 20260506192131 | 85 | 0.0 | 0.0 | 0.00 | 0.00 | 0.00 | 37 | 961.4 | |
| 20260506191631 | 84 | 0.0 | 0.0 | 0.00 | 0.00 | 0.00 | 37 | 961.3 | |
| 20260506191131 | 85 | 0.0 | 0.0 | 0.00 | 0.00 | 0.00 | 37 | 961.3 | |
| 20260506190631 | 85 | 0.0 | 0.0 | 0.00 | 0.00 | 0.00 | 37 | 961.3 | |
| 20260506190131 | 85 | 0.0 | 0.0 | 0.00 | 0.00 | 0.00 | 37 | 961.2 | |
| 20260506185631 | 85 | 0.0 | 0.0 | 0.00 | 0.00 | 0.00 | 37 | 961.0 | |
| 20260506185131 | 85 | 0.0 | 0.0 | 0.00 | 0.00 | 0.00 | 37 | 961.0 | |
| 20260506184631 | 85 | 0.0 | 0.0 | 0.00 | 0.00 | 0.00 | 37 | 960.9 | |
| 20260506184131 | 85 | 0.0 | 0.0 | 0.00 | 0.00 | 0.00 | 37 | 960.9 | |
| 20260506183631 | 85 | 0.0 | 0.0 | 0.00 | 0.00 | 0.00 | 37 | 960.7 | |
| 20260506183131 | 85 | 0.0 | 0.0 | 0.00 | 0.00 | 0.00 | 37 | 960.5 | |
| 20260506182631 | 85 | 0.0 | 0.0 | 0.00 | 0.00 | 0.00 | 37 | 960.5 | |
| 20260506182131 | 85 | 0.0 | 0.0 | 0.00 | 0.00 | 0.00 | 37 | 960.3 | |
| 20260506181631 | 85 | 0.0 | 0.0 | 0.00 | 0.00 | 0.00 | 37 | 960.2 | |
| 20260506181130 | 85 | 0.0 | 0.0 | 0.00 | 0.00 | 0.00 | 37 | 960.1 | |
| 20260506180630 | 85 | 0.0 | 0.0 | 0.00 | 0.00 | 0.00 | 37 | 960.1 | |
| 20260506180130 | 85 | 0.0 | 0.0 | 0.00 | 0.00 | 0.00 | 37 | 960.0 | |
| 20260506175631 | 85 | 0.0 | 0.0 | 0.00 | 0.00 | 0.00 | 37 | 960.1 | |
| 20260506175130 | 85 | 0.0 | 0.0 | 0.00 | 0.00 | 0.00 | 37 | 960.1 | |
| 20260506174630 | 85 | 0.0 | 0.0 | 0.00 | 0.00 | 0.00 | 37 | 960.2 | |
| 20260506174130 | 85 | 0.0 | 0.0 | 0.00 | 0.00 | 0.00 | 37 | 960.1 | |
| 20260506173631 | 85 | 0.0 | 0.0 | 0.00 | 0.00 | 0.00 | 37 | 960.1 | |
| 20260506173131 | 85 | 0.0 | 0.0 | 0.00 | 0.00 | 0.00 | 36 | 960.0 | |
| 20260506172630 | 86 | 0.0 | 0.0 | 0.00 | 0.00 | 0.00 | 37 | 960.0 | |
| 20260506172130 | 86 | 0.0 | 0.0 | 0.00 | 0.00 | 0.00 | 36 | 960.0 | |
| 20260506171630 | 85 | 0.0 | 0.0 | 0.00 | 0.00 | 0.00 | 37 | 960.0 | |
| 20260506171130 | 85 | 0.0 | 0.0 | 0.00 | 0.00 | 0.00 | 37 | 960.0 | |
| 20260506170630 | 85 | 0.0 | 0.0 | 0.00 | 0.00 | 0.00 | 37 | 960.1 | |
| 20260506170130 | 85 | 0.0 | 0.0 | 0.00 | 0.00 | 0.00 | 37 | 960.1 | |
| 20260506165630 | 84 | 0.0 | 0.0 | 0.00 | 0.00 | 0.00 | 37 | 960.0 | |
| 20260506165130 | 84 | 0.0 | 0.0 | 0.00 | 0.00 | 0.00 | 37 | 960.0 | |
| 20260506164630 | 85 | 0.0 | 0.0 | 0.00 | 0.00 | 0.00 | 37 | 960.0 | |
| 20260506164130 | 85 | 0.0 | 0.0 | 0.00 | 0.00 | 0.00 | 37 | 960.0 | |
| 20260506163630 | 86 | 0.0 | 0.0 | 0.00 | 0.00 | 0.00 | 36 | 960.0 | |
| 20260506163130 | 86 | 0.0 | 0.0 | 0.00 | 0.00 | 0.00 | 36 | 960.1 | |
| 20260506162630 | 85 | 0.0 | 0.0 | 0.00 | 0.00 | 0.00 | 37 | 960.1 | |
| 20260506162130 | 85 | 0.0 | 0.0 | 0.00 | 0.00 | 0.00 | 37 | 960.2 | |
| 20260506161630 | 84 | 0.0 | 0.0 | 0.00 | 0.00 | 0.00 | 38 | 960.3 | |
| 20260506161130 | 84 | 0.0 | 0.0 | 0.00 | 0.00 | 0.00 | 37 | 960.2 | |
| 20260506160629 | 84 | 0.0 | 0.0 | 0.00 | 0.00 | 0.00 | 37 | 960.3 | |
| 20260506160129 | 83 | 0.0 | 0.0 | 0.00 | 0.00 | 0.00 | 37 | 960.1 | |
| 20260506155629 | 82 | 0.0 | 0.0 | 0.00 | 0.00 | 0.00 | 37 | 960.0 | |
| 20260506155129 | 80 | 0.0 | 0.0 | 0.00 | 0.00 | 0.00 | 36 | 959.7 | |
| 20260506154629 | 80 | 0.0 | 0.0 | 0.00 | 0.00 | 0.00 | 34 | 960.0 | |
| 20260506154128 | 83 | 0.0 | 0.0 | 0.00 | 0.00 | 0.00 | 33 | 960.0 | |
| 20260506153628 | 87 | 0.0 | 0.0 | 0.00 | 0.00 | 0.00 | 34 | 960.0 | |
| 20260506153128 | 87 | 0.0 | 0.0 | 0.00 | 0.00 | 0.00 | 35 | 960.0 | |
| 20260506152628 | 87 | 0.0 | 0.0 | 0.00 | 0.00 | 0.00 | 35 | 960.1 | |
| 20260506152128 | 87 | 0.0 | 0.0 | 0.00 | 0.00 | 0.00 | 35 | 960.0 | |
| 20260506151628 | 86 | 0.0 | 0.0 | 0.00 | 0.00 | 0.00 | 36 | 959.9 | |
| 20260506151128 | 84 | 0.0 | 0.0 | 0.00 | 0.00 | 0.00 | 37 | 959.8 | |
| 20260506150628 | 81 | 0.0 | 0.0 | 0.00 | 0.00 | 0.00 | 38 | 959.9 | |
| 20260506150128 | 77 | 0.0 | 0.0 | 0.00 | 0.00 | 0.00 | 36 | 960.0 | |
| 20260506145628 | 77 | 0.0 | 0.0 | 0.00 | 0.00 | 0.00 | 35 | 960.0 | |
| 20260506145127 | 78 | 0.0 | 0.0 | 0.00 | 0.00 | 0.00 | 35 | 960.0 | |
| 20260506144627 | 80 | 0.0 | 0.0 | 0.00 | 0.00 | 0.00 | 34 | 960.0 | |
| 20260506144127 | 81 | 0.0 | 0.0 | 0.00 | 0.00 | 0.00 | 34 | 960.1 | |
| 20260506143627 | 82 | 0.0 | 0.0 | 0.00 | 0.00 | 0.00 | 33 | 960.0 | |
| 20260506143127 | 84 | 0.0 | 0.0 | 0.00 | 0.00 | 0.00 | 32 | 960.0 | |
| 20260506142617 | 86 | 0.0 | 0.0 | 0.00 | 0.00 | 0.00 | 32 | 960.0 | |
| 20260506142117 | 89 | 0.0 | 0.0 | 0.00 | 0.00 | 0.00 | 33 | 960.0 | |
| 20260506141617 | 89 | 0.0 | 0.0 | 0.00 | 0.00 | 0.00 | 38 | 959.8 | |
| 20260506141117 | 85 | 0.0 | 0.0 | 0.00 | 0.00 | 0.00 | 40 | 959.8 | |
| 20260506140616 | 83 | 0.0 | 0.0 | 0.00 | 0.00 | 0.00 | 37 | 959.7 | |
| 20260506140116 | 82 | 0.0 | 0.0 | 0.00 | 0.00 | 0.00 | 38 | 959.8 | |
| 20260506135612 | 81 | 0.0 | 0.0 | 0.00 | 0.00 | 0.00 | 39 | 959.8 | |
| 20260506135112 | 82 | 0.0 | 0.0 | 0.00 | 0.00 | 0.00 | 38 | 960.0 | |
| 20260506134612 | 81 | 0.0 | 0.0 | 0.00 | 0.00 | 0.00 | 39 | 960.0 | |
| 20260506134111 | 81 | 0.0 | 0.0 | 0.00 | 0.00 | 0.00 | 39 | 960.0 | |
| 20260506133611 | 81 | 0.0 | 0.0 | 0.00 | 0.00 | 0.00 | 38 | 959.9 | |
| 20260506133111 | 81 | 0.0 | 0.0 | 0.00 | 0.00 | 0.00 | 39 | 960.0 | |
| 20260506132611 | 81 | 0.0 | 0.0 | 0.00 | 0.00 | 0.00 | 38 | 960.0 | |
| 20260506132111 | 82 | 0.0 | 0.0 | 0.00 | 0.00 | 0.00 | 38 | 960.1 | |
| 20260506131557 | 81 | 0.0 | 0.0 | 0.00 | 0.00 | 0.00 | 39 | 960.1 | |
| 20260506131057 | 81 | 0.0 | 0.0 | 0.00 | 0.00 | 0.00 | 38 | 960.0 | |
| 20260506130557 | 81 | 0.0 | 0.0 | 0.00 | 0.00 | 0.00 | 39 | 960.0 | |
| 20260506130057 | 81 | 0.0 | 0.0 | 0.00 | 0.00 | 0.00 | 39 | 960.0 | |
| 20260506125557 | 81 | 0.0 | 0.0 | 0.00 | 0.00 | 0.00 | 39 | 960.1 | |
| 20260506125057 | 81 | 0.0 | 0.0 | 0.00 | 0.00 | 0.00 | 39 | 960.0 | |
| 20260506124557 | 81 | 0.0 | 0.0 | 0.00 | 0.00 | 0.00 | 38 | 960.1 | |
| 20260506124057 | 81 | 0.0 | 0.0 | 0.00 | 0.00 | 0.00 | 38 | 960.1 | |
| 20260506123557 | 81 | 0.0 | 0.0 | 0.00 | 0.00 | 0.00 | 39 | 960.1 | |
| 20260506123057 | 81 | 0.0 | 0.0 | 0.00 | 0.00 | 0.00 | 39 | 960.1 | |
| 20260506122557 | 81 | 0.0 | 0.0 | 0.00 | 0.00 | 0.00 | 39 | 960.1 | |
| 20260506122057 | 81 | 0.0 | 0.0 | 0.00 | 0.00 | 0.00 | 38 | 960.1 | |
| 20260506121557 | 82 | 0.0 | 0.0 | 0.00 | 0.00 | 0.00 | 38 | 960.1 | |
| 20260506121057 | 82 | 0.0 | 0.0 | 0.00 | 0.00 | 0.00 | 39 | 960.2 | |
| 20260506120557 | 82 | 0.0 | 0.0 | 0.00 | 0.00 | 0.00 | 38 | 960.1 | |
| 20260506120057 | 82 | 0.0 | 0.0 | 0.00 | 0.00 | 0.00 | 39 | 960.2 | |
| 20260506115557 | 82 | 0.0 | 0.0 | 0.00 | 0.00 | 0.00 | 39 | 960.1 | |
| 20260506115057 | 82 | 0.0 | 0.0 | 0.00 | 0.00 | 0.00 | 39 | 960.0 | |
| 20260506114557 | 82 | 0.0 | 0.0 | 0.00 | 0.00 | 0.00 | 39 | 960.1 | |
| 20260506114057 | 82 | 0.0 | 0.0 | 0.00 | 0.00 | 0.00 | 39 | 960.1 | |
| 20260506113557 | 82 | 0.0 | 0.0 | 0.00 | 0.00 | 0.00 | 40 | 960.0 | |
| 20260506113057 | 82 | 0.0 | 0.0 | 0.00 | 0.00 | 0.00 | 40 | 960.1 | |
| 20260506112557 | 82 | 0.0 | 0.0 | 0.00 | 0.00 | 0.00 | 40 | 960.1 | |
| 20260506112057 | 82 | 0.0 | 0.0 | 0.00 | 0.00 | 0.00 | 41 | 960.1 | |
| 20260506111557 | 82 | 0.0 | 0.0 | 0.00 | 0.00 | 0.00 | 42 | 960.2 | |
| 20260506111057 | 81 | 0.0 | 0.0 | 0.00 | 0.00 | 0.00 | 44 | 960.1 |